sensor_id;sensor_type;location;lat;lon;timestamp;P1;durP1;ratioP1;P2;durP2;ratioP2
27305;SDS011;14792;50.886;6.468;2023-02-28T00:02:02;18.30;;;4.28;;
27305;SDS011;14792;50.886;6.468;2023-02-28T00:05:04;14.75;;;4.40;;
27305;SDS011;14792;50.886;6.468;2023-02-28T00:08:06;10.60;;;3.92;;
27305;SDS011;14792;50.886;6.468;2023-02-28T00:11:08;15.65;;;4.10;;
27305;SDS011;14792;50.886;6.468;2023-02-28T00:14:09;17.92;;;3.95;;
27305;SDS011;14792;50.886;6.468;2023-02-28T00:17:10;9.60;;;3.40;;
27305;SDS011;14792;50.886;6.468;2023-02-28T00:20:12;13.50;;;4.25;;
27305;SDS011;14792;50.886;6.468;2023-02-28T00:23:14;19.10;;;3.98;;
27305;SDS011;14792;50.886;6.468;2023-02-28T00:26:15;19.32;;;3.60;;
27305;SDS011;14792;50.886;6.468;2023-02-28T00:29:17;14.23;;;3.42;;
27305;SDS011;14792;50.886;6.468;2023-02-28T00:32:18;12.65;;;3.40;;
27305;SDS011;14792;50.886;6.468;2023-02-28T00:35:20;14.65;;;3.62;;
27305;SDS011;14792;50.886;6.468;2023-02-28T00:38:22;12.15;;;3.20;;
27305;SDS011;14792;50.886;6.468;2023-02-28T00:41:25;12.25;;;3.20;;
27305;SDS011;14792;50.886;6.468;2023-02-28T00:44:28;10.48;;;3.20;;
27305;SDS011;14792;50.886;6.468;2023-02-28T00:47:29;11.50;;;3.08;;
27305;SDS011;14792;50.886;6.468;2023-02-28T00:50:31;13.03;;;3.37;;
27305;SDS011;14792;50.886;6.468;2023-02-28T00:53:33;15.80;;;3.20;;
27305;SDS011;14792;50.886;6.468;2023-02-28T00:56:34;10.90;;;3.52;;
27305;SDS011;14792;50.886;6.468;2023-02-28T00:59:36;9.25;;;3.40;;
27305;SDS011;14792;50.886;6.468;2023-02-28T01:02:37;13.00;;;3.80;;
27305;SDS011;14792;50.886;6.468;2023-02-28T01:05:39;13.03;;;3.83;;
27305;SDS011;14792;50.886;6.468;2023-02-28T01:08:40;16.48;;;3.45;;
27305;SDS011;14792;50.886;6.468;2023-02-28T01:11:42;16.60;;;3.35;;
27305;SDS011;14792;50.886;6.468;2023-02-28T01:14:44;8.35;;;2.90;;
27305;SDS011;14792;50.886;6.468;2023-02-28T01:17:46;8.85;;;3.17;;
27305;SDS011;14792;50.886;6.468;2023-02-28T01:20:48;13.18;;;3.58;;
27305;SDS011;14792;50.886;6.468;2023-02-28T01:23:49;7.80;;;3.20;;
27305;SDS011;14792;50.886;6.468;2023-02-28T01:26:51;14.55;;;4.15;;
27305;SDS011;14792;50.886;6.468;2023-02-28T01:29:53;8.88;;;3.00;;
27305;SDS011;14792;50.886;6.468;2023-02-28T01:32:54;14.55;;;4.10;;
27305;SDS011;14792;50.886;6.468;2023-02-28T01:35:59;10.35;;;3.42;;
27305;SDS011;14792;50.886;6.468;2023-02-28T01:39:03;15.95;;;4.35;;
27305;SDS011;14792;50.886;6.468;2023-02-28T01:42:05;11.08;;;3.60;;
27305;SDS011;14792;50.886;6.468;2023-02-28T01:45:23;15.72;;;3.55;;
27305;SDS011;14792;50.886;6.468;2023-02-28T01:48:25;13.35;;;4.15;;
27305;SDS011;14792;50.886;6.468;2023-02-28T01:51:32;8.85;;;3.27;;
27305;SDS011;14792;50.886;6.468;2023-02-28T01:54:34;17.80;;;4.05;;
27305;SDS011;14792;50.886;6.468;2023-02-28T01:57:38;11.33;;;4.20;;
27305;SDS011;14792;50.886;6.468;2023-02-28T02:00:38;8.88;;;3.58;;
27305;SDS011;14792;50.886;6.468;2023-02-28T02:03:39;9.85;;;3.70;;
27305;SDS011;14792;50.886;6.468;2023-02-28T02:06:42;11.00;;;3.62;;
27305;SDS011;14792;50.886;6.468;2023-02-28T02:09:42;13.80;;;3.60;;
27305;SDS011;14792;50.886;6.468;2023-02-28T02:25:56;9.33;;;3.35;;
27305;SDS011;14792;50.886;6.468;2023-02-28T02:29:27;12.75;;;3.90;;
27305;SDS011;14792;50.886;6.468;2023-02-28T02:32:36;10.70;;;3.15;;
27305;SDS011;14792;50.886;6.468;2023-02-28T02:38:53;9.30;;;4.50;;
27305;SDS011;14792;50.886;6.468;2023-02-28T02:41:52;11.70;;;3.92;;
27305;SDS011;14792;50.886;6.468;2023-02-28T02:45:03;8.23;;;3.65;;
27305;SDS011;14792;50.886;6.468;2023-02-28T02:48:00;10.30;;;3.15;;
27305;SDS011;14792;50.886;6.468;2023-02-28T02:51:03;12.23;;;3.60;;
27305;SDS011;14792;50.886;6.468;2023-02-28T02:54:15;5.05;;;3.33;;
27305;SDS011;14792;50.886;6.468;2023-02-28T02:57:14;11.93;;;3.87;;
27305;SDS011;14792;50.886;6.468;2023-02-28T03:00:13;16.25;;;4.00;;
27305;SDS011;14792;50.886;6.468;2023-02-28T03:03:14;9.70;;;3.67;;
27305;SDS011;14792;50.886;6.468;2023-02-28T03:06:17;8.40;;;3.55;;
27305;SDS011;14792;50.886;6.468;2023-02-28T03:09:18;10.70;;;3.60;;
27305;SDS011;14792;50.886;6.468;2023-02-28T03:12:20;7.22;;;3.62;;
27305;SDS011;14792;50.886;6.468;2023-02-28T03:15:24;13.80;;;4.67;;
27305;SDS011;14792;50.886;6.468;2023-02-28T03:18:44;10.05;;;5.10;;
27305;SDS011;14792;50.886;6.468;2023-02-28T03:25:12;14.87;;;4.70;;
27305;SDS011;14792;50.886;6.468;2023-02-28T03:28:35;9.38;;;4.00;;
27305;SDS011;14792;50.886;6.468;2023-02-28T03:31:36;6.85;;;3.90;;
27305;SDS011;14792;50.886;6.468;2023-02-28T03:34:46;11.63;;;5.12;;
27305;SDS011;14792;50.886;6.468;2023-02-28T03:37:48;10.13;;;4.20;;
27305;SDS011;14792;50.886;6.468;2023-02-28T03:40:50;11.30;;;4.80;;
27305;SDS011;14792;50.886;6.468;2023-02-28T03:43:58;7.62;;;4.10;;
27305;SDS011;14792;50.886;6.468;2023-02-28T03:47:02;8.23;;;3.80;;
27305;SDS011;14792;50.886;6.468;2023-02-28T03:50:05;7.90;;;3.67;;
27305;SDS011;14792;50.886;6.468;2023-02-28T03:56:24;8.98;;;4.10;;
27305;SDS011;14792;50.886;6.468;2023-02-28T03:59:44;9.68;;;3.47;;
27305;SDS011;14792;50.886;6.468;2023-02-28T04:02:43;10.82;;;3.77;;
27305;SDS011;14792;50.886;6.468;2023-02-28T04:05:49;9.23;;;4.25;;
27305;SDS011;14792;50.886;6.468;2023-02-28T04:08:52;8.93;;;3.87;;
27305;SDS011;14792;50.886;6.468;2023-02-28T04:11:54;8.08;;;3.77;;
27305;SDS011;14792;50.886;6.468;2023-02-28T04:14:55;8.13;;;3.95;;
27305;SDS011;14792;50.886;6.468;2023-02-28T04:17:57;10.28;;;4.50;;
27305;SDS011;14792;50.886;6.468;2023-02-28T04:20:59;10.13;;;4.75;;
27305;SDS011;14792;50.886;6.468;2023-02-28T04:24:00;10.18;;;3.98;;
27305;SDS011;14792;50.886;6.468;2023-02-28T04:27:02;7.33;;;4.05;;
27305;SDS011;14792;50.886;6.468;2023-02-28T04:30:03;6.47;;;3.87;;
27305;SDS011;14792;50.886;6.468;2023-02-28T04:33:05;6.87;;;3.77;;
27305;SDS011;14792;50.886;6.468;2023-02-28T04:36:07;8.58;;;4.00;;
27305;SDS011;14792;50.886;6.468;2023-02-28T04:39:08;7.58;;;4.17;;
27305;SDS011;14792;50.886;6.468;2023-02-28T04:42:10;11.97;;;4.00;;
27305;SDS011;14792;50.886;6.468;2023-02-28T04:45:11;9.73;;;4.28;;
27305;SDS011;14792;50.886;6.468;2023-02-28T04:48:13;6.87;;;3.77;;
27305;SDS011;14792;50.886;6.468;2023-02-28T04:51:15;10.63;;;3.75;;
27305;SDS011;14792;50.886;6.468;2023-02-28T04:54:16;5.83;;;3.10;;
27305;SDS011;14792;50.886;6.468;2023-02-28T04:57:17;5.97;;;3.72;;
27305;SDS011;14792;50.886;6.468;2023-02-28T05:00:19;7.50;;;3.75;;
27305;SDS011;14792;50.886;6.468;2023-02-28T05:03:21;7.45;;;3.55;;
27305;SDS011;14792;50.886;6.468;2023-02-28T05:06:23;8.88;;;3.95;;
27305;SDS011;14792;50.886;6.468;2023-02-28T05:09:24;10.68;;;4.30;;
27305;SDS011;14792;50.886;6.468;2023-02-28T05:12:25;9.18;;;3.85;;
27305;SDS011;14792;50.886;6.468;2023-02-28T05:15:27;9.78;;;4.37;;
27305;SDS011;14792;50.886;6.468;2023-02-28T05:18:29;8.90;;;4.45;;
27305;SDS011;14792;50.886;6.468;2023-02-28T05:21:33;8.75;;;4.53;;
27305;SDS011;14792;50.886;6.468;2023-02-28T05:24:34;7.60;;;4.30;;
27305;SDS011;14792;50.886;6.468;2023-02-28T05:27:36;9.20;;;4.20;;
27305;SDS011;14792;50.886;6.468;2023-02-28T05:30:38;9.95;;;4.28;;
27305;SDS011;14792;50.886;6.468;2023-02-28T05:33:39;12.45;;;4.50;;
27305;SDS011;14792;50.886;6.468;2023-02-28T05:36:41;12.58;;;5.28;;
27305;SDS011;14792;50.886;6.468;2023-02-28T05:39:42;16.57;;;4.30;;
27305;SDS011;14792;50.886;6.468;2023-02-28T05:42:44;11.78;;;4.47;;
27305;SDS011;14792;50.886;6.468;2023-02-28T05:45:46;12.05;;;4.08;;
27305;SDS011;14792;50.886;6.468;2023-02-28T05:48:47;7.67;;;3.65;;
27305;SDS011;14792;50.886;6.468;2023-02-28T05:51:49;13.55;;;4.17;;
27305;SDS011;14792;50.886;6.468;2023-02-28T05:54:50;10.45;;;3.83;;
27305;SDS011;14792;50.886;6.468;2023-02-28T05:57:52;13.85;;;4.50;;
27305;SDS011;14792;50.886;6.468;2023-02-28T06:00:53;6.15;;;3.90;;
27305;SDS011;14792;50.886;6.468;2023-02-28T06:03:55;15.83;;;4.53;;
27305;SDS011;14792;50.886;6.468;2023-02-28T06:06:57;16.95;;;4.45;;
27305;SDS011;14792;50.886;6.468;2023-02-28T06:09:58;14.70;;;4.45;;
27305;SDS011;14792;50.886;6.468;2023-02-28T06:13:00;17.40;;;4.25;;
27305;SDS011;14792;50.886;6.468;2023-02-28T06:16:01;14.87;;;4.92;;
27305;SDS011;14792;50.886;6.468;2023-02-28T06:19:03;12.00;;;4.50;;
27305;SDS011;14792;50.886;6.468;2023-02-28T06:22:05;14.63;;;4.87;;
27305;SDS011;14792;50.886;6.468;2023-02-28T06:25:06;21.95;;;5.35;;
27305;SDS011;14792;50.886;6.468;2023-02-28T06:28:08;41.58;;;6.58;;
27305;SDS011;14792;50.886;6.468;2023-02-28T06:31:10;19.55;;;5.17;;
27305;SDS011;14792;50.886;6.468;2023-02-28T06:34:11;15.50;;;5.30;;
27305;SDS011;14792;50.886;6.468;2023-02-28T06:37:13;21.68;;;5.10;;
27305;SDS011;14792;50.886;6.468;2023-02-28T06:40:14;15.80;;;4.67;;
27305;SDS011;14792;50.886;6.468;2023-02-28T06:43:16;13.55;;;4.80;;
27305;SDS011;14792;50.886;6.468;2023-02-28T06:46:17;14.45;;;5.00;;
27305;SDS011;14792;50.886;6.468;2023-02-28T06:49:19;12.28;;;4.55;;
27305;SDS011;14792;50.886;6.468;2023-02-28T06:52:21;15.40;;;4.67;;
27305;SDS011;14792;50.886;6.468;2023-02-28T06:55:22;14.87;;;5.25;;
27305;SDS011;14792;50.886;6.468;2023-02-28T06:58:24;11.08;;;4.70;;
27305;SDS011;14792;50.886;6.468;2023-02-28T07:01:25;14.93;;;5.25;;
27305;SDS011;14792;50.886;6.468;2023-02-28T07:04:27;17.45;;;5.05;;
27305;SDS011;14792;50.886;6.468;2023-02-28T07:07:28;10.45;;;4.25;;
27305;SDS011;14792;50.886;6.468;2023-02-28T07:10:32;8.50;;;4.58;;
27305;SDS011;14792;50.886;6.468;2023-02-28T07:13:33;9.30;;;4.45;;
27305;SDS011;14792;50.886;6.468;2023-02-28T07:16:35;10.63;;;4.35;;
27305;SDS011;14792;50.886;6.468;2023-02-28T07:19:36;8.20;;;4.35;;
27305;SDS011;14792;50.886;6.468;2023-02-28T07:22:37;14.78;;;4.60;;
27305;SDS011;14792;50.886;6.468;2023-02-28T07:25:39;11.97;;;4.10;;
27305;SDS011;14792;50.886;6.468;2023-02-28T07:28:41;11.55;;;4.28;;
27305;SDS011;14792;50.886;6.468;2023-02-28T07:31:42;11.40;;;4.53;;
27305;SDS011;14792;50.886;6.468;2023-02-28T07:34:44;7.80;;;3.98;;
27305;SDS011;14792;50.886;6.468;2023-02-28T07:37:46;10.40;;;4.67;;
27305;SDS011;14792;50.886;6.468;2023-02-28T07:40:48;11.68;;;3.92;;
27305;SDS011;14792;50.886;6.468;2023-02-28T07:43:52;11.25;;;3.90;;
27305;SDS011;14792;50.886;6.468;2023-02-28T07:46:51;10.88;;;3.62;;
27305;SDS011;14792;50.886;6.468;2023-02-28T07:49:53;8.15;;;4.05;;
27305;SDS011;14792;50.886;6.468;2023-02-28T07:52:54;12.00;;;3.75;;
27305;SDS011;14792;50.886;6.468;2023-02-28T07:55:56;10.03;;;3.70;;
27305;SDS011;14792;50.886;6.468;2023-02-28T07:58:57;7.37;;;3.87;;
27305;SDS011;14792;50.886;6.468;2023-02-28T08:01:59;7.37;;;3.25;;
27305;SDS011;14792;50.886;6.468;2023-02-28T08:05:01;5.65;;;3.65;;
27305;SDS011;14792;50.886;6.468;2023-02-28T08:08:02;8.65;;;3.35;;
27305;SDS011;14792;50.886;6.468;2023-02-28T08:11:04;15.08;;;3.70;;
27305;SDS011;14792;50.886;6.468;2023-02-28T08:14:05;7.95;;;3.30;;
27305;SDS011;14792;50.886;6.468;2023-02-28T08:17:07;8.70;;;3.72;;
27305;SDS011;14792;50.886;6.468;2023-02-28T08:20:09;5.62;;;3.52;;
27305;SDS011;14792;50.886;6.468;2023-02-28T08:23:10;11.20;;;3.45;;
27305;SDS011;14792;50.886;6.468;2023-02-28T08:26:12;7.08;;;3.30;;
27305;SDS011;14792;50.886;6.468;2023-02-28T08:29:13;10.90;;;3.30;;
27305;SDS011;14792;50.886;6.468;2023-02-28T08:32:15;6.83;;;2.95;;
27305;SDS011;14792;50.886;6.468;2023-02-28T08:35:17;5.97;;;3.15;;
27305;SDS011;14792;50.886;6.468;2023-02-28T08:38:18;15.40;;;3.70;;
27305;SDS011;14792;50.886;6.468;2023-02-28T08:41:20;12.25;;;3.33;;
27305;SDS011;14792;50.886;6.468;2023-02-28T08:44:21;10.95;;;3.30;;
27305;SDS011;14792;50.886;6.468;2023-02-28T08:47:23;10.13;;;2.95;;
27305;SDS011;14792;50.886;6.468;2023-02-28T08:50:24;8.18;;;3.20;;
27305;SDS011;14792;50.886;6.468;2023-02-28T08:53:26;11.65;;;2.90;;
27305;SDS011;14792;50.886;6.468;2023-02-28T08:56:28;5.53;;;2.70;;
27305;SDS011;14792;50.886;6.468;2023-02-28T08:59:29;11.60;;;2.90;;
27305;SDS011;14792;50.886;6.468;2023-02-28T09:02:31;20.12;;;4.17;;
27305;SDS011;14792;50.886;6.468;2023-02-28T09:05:32;5.45;;;2.65;;
27305;SDS011;14792;50.886;6.468;2023-02-28T09:08:34;9.23;;;2.85;;
27305;SDS011;14792;50.886;6.468;2023-02-28T09:11:36;5.90;;;2.72;;
27305;SDS011;14792;50.886;6.468;2023-02-28T09:14:37;6.03;;;2.25;;
27305;SDS011;14792;50.886;6.468;2023-02-28T09:17:39;7.33;;;1.70;;
27305;SDS011;14792;50.886;6.468;2023-02-28T09:20:41;9.45;;;1.87;;
27305;SDS011;14792;50.886;6.468;2023-02-28T09:23:42;7.28;;;2.25;;
27305;SDS011;14792;50.886;6.468;2023-02-28T09:26:43;1.82;;;1.32;;
27305;SDS011;14792;50.886;6.468;2023-02-28T09:29:45;11.18;;;1.90;;
27305;SDS011;14792;50.886;6.468;2023-02-28T09:32:47;4.45;;;1.55;;
27305;SDS011;14792;50.886;6.468;2023-02-28T09:35:48;8.80;;;1.98;;
27305;SDS011;14792;50.886;6.468;2023-02-28T09:38:50;12.82;;;2.27;;
27305;SDS011;14792;50.886;6.468;2023-02-28T09:41:52;3.27;;;1.60;;
27305;SDS011;14792;50.886;6.468;2023-02-28T09:44:53;7.45;;;2.40;;
27305;SDS011;14792;50.886;6.468;2023-02-28T09:47:56;16.60;;;2.05;;
27305;SDS011;14792;50.886;6.468;2023-02-28T09:51:00;6.80;;;1.80;;
27305;SDS011;14792;50.886;6.468;2023-02-28T09:54:01;3.35;;;1.57;;
27305;SDS011;14792;50.886;6.468;2023-02-28T10:00:51;6.83;;;1.62;;
27305;SDS011;14792;50.886;6.468;2023-02-28T10:03:22;5.50;;;1.47;;
27305;SDS011;14792;50.886;6.468;2023-02-28T10:06:33;4.17;;;1.82;;
27305;SDS011;14792;50.886;6.468;2023-02-28T10:09:31;7.53;;;1.90;;
27305;SDS011;14792;50.886;6.468;2023-02-28T10:12:33;8.23;;;1.72;;
27305;SDS011;14792;50.886;6.468;2023-02-28T10:15:34;2.70;;;1.40;;
27305;SDS011;14792;50.886;6.468;2023-02-28T10:18:42;5.20;;;1.70;;
27305;SDS011;14792;50.886;6.468;2023-02-28T10:25:17;5.28;;;1.60;;
27305;SDS011;14792;50.886;6.468;2023-02-28T10:28:13;5.42;;;1.67;;
27305;SDS011;14792;50.886;6.468;2023-02-28T10:31:16;7.05;;;1.62;;
27305;SDS011;14792;50.886;6.468;2023-02-28T10:34:16;8.60;;;2.10;;
27305;SDS011;14792;50.886;6.468;2023-02-28T10:37:17;5.05;;;1.60;;
27305;SDS011;14792;50.886;6.468;2023-02-28T10:43:21;4.67;;;1.50;;
27305;SDS011;14792;50.886;6.468;2023-02-28T10:46:22;7.92;;;1.50;;
27305;SDS011;14792;50.886;6.468;2023-02-28T10:49:27;3.45;;;1.60;;
27305;SDS011;14792;50.886;6.468;2023-02-28T10:52:40;6.28;;;1.60;;
27305;SDS011;14792;50.886;6.468;2023-02-28T10:55:42;6.53;;;1.60;;
27305;SDS011;14792;50.886;6.468;2023-02-28T10:58:51;6.33;;;1.65;;
27305;SDS011;14792;50.886;6.468;2023-02-28T11:01:59;5.35;;;1.37;;
27305;SDS011;14792;50.886;6.468;2023-02-28T11:05:01;9.53;;;2.20;;
27305;SDS011;14792;50.886;6.468;2023-02-28T11:08:06;3.10;;;1.87;;
27305;SDS011;14792;50.886;6.468;2023-02-28T11:11:07;5.25;;;1.80;;
27305;SDS011;14792;50.886;6.468;2023-02-28T11:14:16;6.87;;;1.95;;
27305;SDS011;14792;50.886;6.468;2023-02-28T11:17:14;8.38;;;1.57;;
27305;SDS011;14792;50.886;6.468;2023-02-28T11:20:18;4.80;;;1.80;;
27305;SDS011;14792;50.886;6.468;2023-02-28T11:23:16;5.35;;;1.92;;
27305;SDS011;14792;50.886;6.468;2023-02-28T11:26:34;10.55;;;1.98;;
27305;SDS011;14792;50.886;6.468;2023-02-28T11:29:21;8.10;;;1.67;;
27305;SDS011;14792;50.886;6.468;2023-02-28T11:32:21;3.92;;;1.92;;
27305;SDS011;14792;50.886;6.468;2023-02-28T11:35:26;6.40;;;1.90;;
27305;SDS011;14792;50.886;6.468;2023-02-28T11:38:27;10.58;;;2.10;;
27305;SDS011;14792;50.886;6.468;2023-02-28T11:41:32;4.45;;;1.55;;
27305;SDS011;14792;50.886;6.468;2023-02-28T11:51:03;4.00;;;1.77;;
27305;SDS011;14792;50.886;6.468;2023-02-28T12:00:39;4.97;;;2.00;;
27305;SDS011;14792;50.886;6.468;2023-02-28T12:13:25;3.22;;;1.70;;
27305;SDS011;14792;50.886;6.468;2023-02-28T12:23:19;4.15;;;1.80;;
27305;SDS011;14792;50.886;6.468;2023-02-28T12:26:36;5.53;;;2.25;;
27305;SDS011;14792;50.886;6.468;2023-02-28T12:29:49;6.95;;;2.60;;
27305;SDS011;14792;50.886;6.468;2023-02-28T12:36:05;3.30;;;2.05;;
27305;SDS011;14792;50.886;6.468;2023-02-28T12:39:11;5.28;;;2.37;;
27305;SDS011;14792;50.886;6.468;2023-02-28T12:42:13;3.87;;;1.80;;
27305;SDS011;14792;50.886;6.468;2023-02-28T12:45:19;4.15;;;2.05;;
27305;SDS011;14792;50.886;6.468;2023-02-28T12:48:31;11.60;;;2.15;;
27305;SDS011;14792;50.886;6.468;2023-02-28T12:51:22;17.37;;;2.75;;
27305;SDS011;14792;50.886;6.468;2023-02-28T12:54:35;2.92;;;2.33;;
27305;SDS011;14792;50.886;6.468;2023-02-28T13:10:40;4.75;;;2.83;;
27305;SDS011;14792;50.886;6.468;2023-02-28T13:13:43;5.37;;;2.83;;
27305;SDS011;14792;50.886;6.468;2023-02-28T13:23:41;4.50;;;2.40;;
27305;SDS011;14792;50.886;6.468;2023-02-28T13:27:19;4.17;;;2.52;;
27305;SDS011;14792;50.886;6.468;2023-02-28T13:29:33;8.43;;;2.98;;
27305;SDS011;14792;50.886;6.468;2023-02-28T13:32:36;4.47;;;2.65;;
27305;SDS011;14792;50.886;6.468;2023-02-28T13:35:43;6.42;;;2.50;;
27305;SDS011;14792;50.886;6.468;2023-02-28T13:41:47;5.70;;;2.70;;
27305;SDS011;14792;50.886;6.468;2023-02-28T13:48:15;5.10;;;2.60;;
27305;SDS011;14792;50.886;6.468;2023-02-28T14:04:38;10.08;;;2.65;;
27305;SDS011;14792;50.886;6.468;2023-02-28T14:07:44;9.73;;;2.45;;
27305;SDS011;14792;50.886;6.468;2023-02-28T14:10:47;8.20;;;2.45;;
27305;SDS011;14792;50.886;6.468;2023-02-28T14:13:50;4.12;;;2.60;;
27305;SDS011;14792;50.886;6.468;2023-02-28T14:16:52;8.80;;;2.60;;
27305;SDS011;14792;50.886;6.468;2023-02-28T14:19:53;7.70;;;3.05;;
27305;SDS011;14792;50.886;6.468;2023-02-28T14:23:08;7.87;;;2.77;;
27305;SDS011;14792;50.886;6.468;2023-02-28T14:26:31;4.47;;;2.72;;
27305;SDS011;14792;50.886;6.468;2023-02-28T14:32:51;6.72;;;2.67;;
27305;SDS011;14792;50.886;6.468;2023-02-28T14:39:33;4.53;;;2.30;;
27305;SDS011;14792;50.886;6.468;2023-02-28T14:42:30;5.33;;;2.80;;
27305;SDS011;14792;50.886;6.468;2023-02-28T14:45:33;6.37;;;2.80;;
27305;SDS011;14792;50.886;6.468;2023-02-28T14:48:33;8.18;;;2.95;;
27305;SDS011;14792;50.886;6.468;2023-02-28T14:51:35;6.17;;;2.80;;
27305;SDS011;14792;50.886;6.468;2023-02-28T14:54:37;8.38;;;3.20;;
27305;SDS011;14792;50.886;6.468;2023-02-28T14:57:41;6.15;;;2.90;;
27305;SDS011;14792;50.886;6.468;2023-02-28T15:00:49;4.30;;;2.42;;
27305;SDS011;14792;50.886;6.468;2023-02-28T15:03:57;6.80;;;2.65;;
27305;SDS011;14792;50.886;6.468;2023-02-28T15:07:07;6.30;;;2.95;;
27305;SDS011;14792;50.886;6.468;2023-02-28T15:13:15;5.53;;;3.27;;
27305;SDS011;14792;50.886;6.468;2023-02-28T15:16:18;3.70;;;2.90;;
27305;SDS011;14792;50.886;6.468;2023-02-28T15:19:22;4.92;;;2.75;;
27305;SDS011;14792;50.886;6.468;2023-02-28T15:22:31;6.87;;;3.10;;
27305;SDS011;14792;50.886;6.468;2023-02-28T15:25:30;4.92;;;2.65;;
27305;SDS011;14792;50.886;6.468;2023-02-28T15:28:32;6.78;;;2.60;;
27305;SDS011;14792;50.886;6.468;2023-02-28T15:31:35;6.50;;;2.75;;
27305;SDS011;14792;50.886;6.468;2023-02-28T15:34:39;5.22;;;2.45;;
27305;SDS011;14792;50.886;6.468;2023-02-28T15:37:40;5.62;;;2.47;;
27305;SDS011;14792;50.886;6.468;2023-02-28T15:40:43;8.70;;;2.75;;
27305;SDS011;14792;50.886;6.468;2023-02-28T15:43:43;6.90;;;2.55;;
27305;SDS011;14792;50.886;6.468;2023-02-28T15:46:53;6.15;;;2.50;;
27305;SDS011;14792;50.886;6.468;2023-02-28T15:49:47;7.03;;;2.92;;
27305;SDS011;14792;50.886;6.468;2023-02-28T15:52:53;5.20;;;2.12;;
27305;SDS011;14792;50.886;6.468;2023-02-28T15:55:56;4.22;;;2.52;;
27305;SDS011;14792;50.886;6.468;2023-02-28T15:58:57;8.73;;;3.00;;
27305;SDS011;14792;50.886;6.468;2023-02-28T16:02:11;4.05;;;2.45;;
27305;SDS011;14792;50.886;6.468;2023-02-28T16:08:14;5.80;;;2.85;;
27305;SDS011;14792;50.886;6.468;2023-02-28T16:11:14;7.00;;;3.05;;
27305;SDS011;14792;50.886;6.468;2023-02-28T16:14:23;9.28;;;3.05;;
27305;SDS011;14792;50.886;6.468;2023-02-28T16:17:27;5.53;;;2.75;;
27305;SDS011;14792;50.886;6.468;2023-02-28T16:20:28;2.85;;;2.35;;
27305;SDS011;14792;50.886;6.468;2023-02-28T16:23:29;7.40;;;2.85;;
27305;SDS011;14792;50.886;6.468;2023-02-28T16:26:31;8.83;;;2.90;;
27305;SDS011;14792;50.886;6.468;2023-02-28T16:29:35;5.45;;;3.20;;
27305;SDS011;14792;50.886;6.468;2023-02-28T16:32:37;5.28;;;2.98;;
27305;SDS011;14792;50.886;6.468;2023-02-28T16:35:38;7.20;;;2.75;;
27305;SDS011;14792;50.886;6.468;2023-02-28T16:38:40;4.92;;;2.80;;
27305;SDS011;14792;50.886;6.468;2023-02-28T16:41:42;5.47;;;3.22;;
27305;SDS011;14792;50.886;6.468;2023-02-28T16:44:43;5.80;;;2.62;;
27305;SDS011;14792;50.886;6.468;2023-02-28T16:47:45;5.87;;;2.62;;
27305;SDS011;14792;50.886;6.468;2023-02-28T16:50:46;9.90;;;2.72;;
27305;SDS011;14792;50.886;6.468;2023-02-28T16:53:48;7.10;;;2.70;;
27305;SDS011;14792;50.886;6.468;2023-02-28T16:56:49;8.58;;;3.00;;
27305;SDS011;14792;50.886;6.468;2023-02-28T16:59:51;8.68;;;3.12;;
27305;SDS011;14792;50.886;6.468;2023-02-28T17:02:53;8.30;;;3.10;;
27305;SDS011;14792;50.886;6.468;2023-02-28T17:05:54;7.37;;;2.80;;
27305;SDS011;14792;50.886;6.468;2023-02-28T17:08:56;6.42;;;3.00;;
27305;SDS011;14792;50.886;6.468;2023-02-28T17:11:57;9.28;;;3.40;;
27305;SDS011;14792;50.886;6.468;2023-02-28T17:14:59;7.65;;;3.62;;
27305;SDS011;14792;50.886;6.468;2023-02-28T17:18:00;14.07;;;3.55;;
27305;SDS011;14792;50.886;6.468;2023-02-28T17:21:02;11.43;;;4.30;;
27305;SDS011;14792;50.886;6.468;2023-02-28T17:24:04;10.53;;;4.08;;
27305;SDS011;14792;50.886;6.468;2023-02-28T17:27:05;10.05;;;4.70;;
27305;SDS011;14792;50.886;6.468;2023-02-28T17:30:13;9.88;;;3.85;;
27305;SDS011;14792;50.886;6.468;2023-02-28T17:33:15;13.18;;;3.90;;
27305;SDS011;14792;50.886;6.468;2023-02-28T17:36:18;7.95;;;3.72;;
27305;SDS011;14792;50.886;6.468;2023-02-28T17:39:20;11.75;;;6.20;;
27305;SDS011;14792;50.886;6.468;2023-02-28T17:42:25;9.90;;;3.85;;
27305;SDS011;14792;50.886;6.468;2023-02-28T17:45:27;9.75;;;3.70;;
27305;SDS011;14792;50.886;6.468;2023-02-28T17:48:28;12.95;;;4.58;;
27305;SDS011;14792;50.886;6.468;2023-02-28T17:51:30;13.48;;;4.65;;
27305;SDS011;14792;50.886;6.468;2023-02-28T17:54:31;13.20;;;3.60;;
27305;SDS011;14792;50.886;6.468;2023-02-28T17:57:33;7.37;;;4.25;;
27305;SDS011;14792;50.886;6.468;2023-02-28T18:00:35;7.97;;;5.00;;
27305;SDS011;14792;50.886;6.468;2023-02-28T18:03:36;8.38;;;4.42;;
27305;SDS011;14792;50.886;6.468;2023-02-28T18:06:41;20.85;;;4.62;;
27305;SDS011;14792;50.886;6.468;2023-02-28T18:09:48;14.15;;;4.60;;
27305;SDS011;14792;50.886;6.468;2023-02-28T18:12:50;15.03;;;4.58;;
27305;SDS011;14792;50.886;6.468;2023-02-28T18:15:51;25.70;;;13.78;;
27305;SDS011;14792;50.886;6.468;2023-02-28T18:18:53;26.15;;;10.48;;
27305;SDS011;14792;50.886;6.468;2023-02-28T18:21:54;17.37;;;7.83;;
27305;SDS011;14792;50.886;6.468;2023-02-28T18:24:56;24.65;;;10.05;;
27305;SDS011;14792;50.886;6.468;2023-02-28T18:27:57;20.97;;;8.75;;
27305;SDS011;14792;50.886;6.468;2023-02-28T18:31:06;19.98;;;6.05;;
27305;SDS011;14792;50.886;6.468;2023-02-28T18:34:09;15.00;;;5.33;;
27305;SDS011;14792;50.886;6.468;2023-02-28T18:37:11;12.68;;;5.50;;
27305;SDS011;14792;50.886;6.468;2023-02-28T18:40:13;9.58;;;4.20;;
27305;SDS011;14792;50.886;6.468;2023-02-28T18:43:14;11.93;;;5.20;;
27305;SDS011;14792;50.886;6.468;2023-02-28T18:46:17;18.82;;;5.85;;
27305;SDS011;14792;50.886;6.468;2023-02-28T18:49:17;11.70;;;4.40;;
27305;SDS011;14792;50.886;6.468;2023-02-28T18:52:19;7.35;;;5.12;;
27305;SDS011;14792;50.886;6.468;2023-02-28T18:55:20;7.87;;;4.87;;
27305;SDS011;14792;50.886;6.468;2023-02-28T18:58:22;7.55;;;4.75;;
27305;SDS011;14792;50.886;6.468;2023-02-28T19:01:24;12.07;;;4.75;;
27305;SDS011;14792;50.886;6.468;2023-02-28T19:04:28;9.35;;;5.72;;
27305;SDS011;14792;50.886;6.468;2023-02-28T19:07:30;10.85;;;5.12;;
27305;SDS011;14792;50.886;6.468;2023-02-28T19:10:31;11.38;;;5.08;;
27305;SDS011;14792;50.886;6.468;2023-02-28T19:13:33;11.55;;;5.12;;
27305;SDS011;14792;50.886;6.468;2023-02-28T19:16:35;10.93;;;5.70;;
27305;SDS011;14792;50.886;6.468;2023-02-28T19:19:36;16.25;;;4.83;;
27305;SDS011;14792;50.886;6.468;2023-02-28T19:22:38;11.55;;;5.22;;
27305;SDS011;14792;50.886;6.468;2023-02-28T19:25:40;9.43;;;5.17;;
27305;SDS011;14792;50.886;6.468;2023-02-28T19:28:41;14.43;;;7.37;;
27305;SDS011;14792;50.886;6.468;2023-02-28T19:31:42;11.57;;;6.03;;
27305;SDS011;14792;50.886;6.468;2023-02-28T19:34:44;11.35;;;5.75;;
27305;SDS011;14792;50.886;6.468;2023-02-28T19:37:45;10.78;;;5.03;;
27305;SDS011;14792;50.886;6.468;2023-02-28T19:40:47;9.20;;;5.15;;
27305;SDS011;14792;50.886;6.468;2023-02-28T19:43:49;10.80;;;6.08;;
27305;SDS011;14792;50.886;6.468;2023-02-28T19:46:50;13.95;;;5.55;;
27305;SDS011;14792;50.886;6.468;2023-02-28T19:49:52;12.05;;;6.25;;
27305;SDS011;14792;50.886;6.468;2023-02-28T19:52:53;12.50;;;5.95;;
27305;SDS011;14792;50.886;6.468;2023-02-28T19:55:55;12.28;;;6.03;;
27305;SDS011;14792;50.886;6.468;2023-02-28T19:58:57;12.00;;;6.33;;
27305;SDS011;14792;50.886;6.468;2023-02-28T20:01:58;28.77;;;6.87;;
27305;SDS011;14792;50.886;6.468;2023-02-28T20:05:00;16.75;;;7.25;;
27305;SDS011;14792;50.886;6.468;2023-02-28T20:08:01;21.00;;;7.00;;
27305;SDS011;14792;50.886;6.468;2023-02-28T20:11:08;20.65;;;8.10;;